sensor_id;sensor_type;location;lat;lon;timestamp;pressure;altitude;pressure_sealevel;temperature
42119;BMP280;27783;42.782;23.274;2022-09-27T00:00:16;94606.09;;;15.12
42119;BMP280;27783;42.782;23.274;2022-09-27T00:02:42;94602.44;;;15.18
42119;BMP280;27783;42.782;23.274;2022-09-27T00:05:07;94594.25;;;15.04
42119;BMP280;27783;42.782;23.274;2022-09-27T00:07:32;94612.47;;;15.14
42119;BMP280;27783;42.782;23.274;2022-09-27T00:09:58;94617.53;;;15.21
42119;BMP280;27783;42.782;23.274;2022-09-27T00:12:24;94615.91;;;15.44
42119;BMP280;27783;42.782;23.274;2022-09-27T00:14:49;94611.25;;;15.27
42119;BMP280;27783;42.782;23.274;2022-09-27T00:17:14;94614.63;;;15.28
42119;BMP280;27783;42.782;23.274;2022-09-27T00:19:40;94625.06;;;15.22
42119;BMP280;27783;42.782;23.274;2022-09-27T00:22:05;94642.00;;;15.37
42119;BMP280;27783;42.782;23.274;2022-09-27T00:24:31;94644.22;;;15.38
42119;BMP280;27783;42.782;23.274;2022-09-27T00:26:56;94640.44;;;15.27
42119;BMP280;27783;42.782;23.274;2022-09-27T00:29:22;94637.78;;;15.27
42119;BMP280;27783;42.782;23.274;2022-09-27T00:31:48;94624.19;;;15.25
42119;BMP280;27783;42.782;23.274;2022-09-27T00:34:24;94617.03;;;15.14
42119;BMP280;27783;42.782;23.274;2022-09-27T00:36:50;94615.78;;;15.06
42119;BMP280;27783;42.782;23.274;2022-09-27T00:39:16;94611.78;;;15.22
42119;BMP280;27783;42.782;23.274;2022-09-27T00:41:42;94605.22;;;15.15
42119;BMP280;27783;42.782;23.274;2022-09-27T00:47:29;94586.41;;;15.01
42119;BMP280;27783;42.782;23.274;2022-09-27T00:50:06;94582.69;;;14.98
42119;BMP280;27783;42.782;23.274;2022-09-27T00:53:01;94588.13;;;14.83
42119;BMP280;27783;42.782;23.274;2022-09-27T00:55:32;94585.19;;;14.81
42119;BMP280;27783;42.782;23.274;2022-09-27T00:57:59;94587.44;;;14.70
42119;BMP280;27783;42.782;23.274;2022-09-27T01:00:25;94574.28;;;14.67
42119;BMP280;27783;42.782;23.274;2022-09-27T01:02:52;94579.44;;;14.82
42119;BMP280;27783;42.782;23.274;2022-09-27T01:05:20;94579.09;;;14.92
42119;BMP280;27783;42.782;23.274;2022-09-27T01:07:47;94575.50;;;14.86
42119;BMP280;27783;42.782;23.274;2022-09-27T01:10:13;94564.50;;;14.76
42119;BMP280;27783;42.782;23.274;2022-09-27T01:15:52;94553.47;;;14.77
42119;BMP280;27783;42.782;23.274;2022-09-27T01:18:31;94548.91;;;14.78
42119;BMP280;27783;42.782;23.274;2022-09-27T01:21:35;94563.31;;;14.89
42119;BMP280;27783;42.782;23.274;2022-09-27T01:30:19;94557.25;;;14.88
42119;BMP280;27783;42.782;23.274;2022-09-27T01:33:20;94555.13;;;14.83
42119;BMP280;27783;42.782;23.274;2022-09-27T01:41:06;94568.13;;;15.02
42119;BMP280;27783;42.782;23.274;2022-09-27T01:43:58;94559.75;;;15.04
42119;BMP280;27783;42.782;23.274;2022-09-27T01:46:55;94561.91;;;14.97
42119;BMP280;27783;42.782;23.274;2022-09-27T01:49:31;94566.75;;;14.98
42119;BMP280;27783;42.782;23.274;2022-09-27T01:52:01;94551.22;;;15.09
42119;BMP280;27783;42.782;23.274;2022-09-27T01:54:44;94562.09;;;15.02
42119;BMP280;27783;42.782;23.274;2022-09-27T01:57:17;94545.19;;;14.75
42119;BMP280;27783;42.782;23.274;2022-09-27T01:59:55;94540.22;;;14.65
42119;BMP280;27783;42.782;23.274;2022-09-27T02:02:24;94547.66;;;14.70
42119;BMP280;27783;42.782;23.274;2022-09-27T02:04:55;94543.16;;;14.91
42119;BMP280;27783;42.782;23.274;2022-09-27T02:07:26;94554.50;;;15.13
42119;BMP280;27783;42.782;23.274;2022-09-27T02:10:02;94546.41;;;14.95
42119;BMP280;27783;42.782;23.274;2022-09-27T02:12:31;94536.25;;;14.82
42119;BMP280;27783;42.782;23.274;2022-09-27T02:15:00;94530.09;;;14.84
42119;BMP280;27783;42.782;23.274;2022-09-27T02:23:20;94518.97;;;14.77
42119;BMP280;27783;42.782;23.274;2022-09-27T02:25:53;94509.13;;;14.99
42119;BMP280;27783;42.782;23.274;2022-09-27T02:28:32;94494.75;;;14.87
42119;BMP280;27783;42.782;23.274;2022-09-27T02:30:59;94500.19;;;14.72
42119;BMP280;27783;42.782;23.274;2022-09-27T02:33:32;94494.41;;;14.85
42119;BMP280;27783;42.782;23.274;2022-09-27T02:36:00;94488.25;;;14.67
42119;BMP280;27783;42.782;23.274;2022-09-27T02:38:25;94498.53;;;14.66
42119;BMP280;27783;42.782;23.274;2022-09-27T02:40:51;94499.72;;;14.65
42119;BMP280;27783;42.782;23.274;2022-09-27T02:43:18;94499.38;;;14.75
42119;BMP280;27783;42.782;23.274;2022-09-27T02:52:10;94522.09;;;14.97
42119;BMP280;27783;42.782;23.274;2022-09-27T03:05:12;94485.53;;;14.80
42119;BMP280;27783;42.782;23.274;2022-09-27T03:07:40;94487.22;;;14.86
42119;BMP280;27783;42.782;23.274;2022-09-27T03:10:06;94468.00;;;14.82
42119;BMP280;27783;42.782;23.274;2022-09-27T03:12:32;94461.03;;;14.76
42119;BMP280;27783;42.782;23.274;2022-09-27T03:14:58;94453.72;;;14.80
42119;BMP280;27783;42.782;23.274;2022-09-27T03:17:25;94446.25;;;14.87
42119;BMP280;27783;42.782;23.274;2022-09-27T03:19:51;94441.31;;;14.77
42119;BMP280;27783;42.782;23.274;2022-09-27T03:22:16;94451.34;;;14.82
42119;BMP280;27783;42.782;23.274;2022-09-27T03:24:42;94445.00;;;14.91
42119;BMP280;27783;42.782;23.274;2022-09-27T03:27:07;94433.97;;;15.01
42119;BMP280;27783;42.782;23.274;2022-09-27T03:29:34;94442.25;;;15.03
42119;BMP280;27783;42.782;23.274;2022-09-27T03:32:00;94433.63;;;14.91
42119;BMP280;27783;42.782;23.274;2022-09-27T03:34:26;94437.13;;;14.88
42119;BMP280;27783;42.782;23.274;2022-09-27T03:36:51;94439.09;;;14.96
42119;BMP280;27783;42.782;23.274;2022-09-27T03:39:17;94437.06;;;15.00
42119;BMP280;27783;42.782;23.274;2022-09-27T03:41:42;94443.75;;;15.04
42119;BMP280;27783;42.782;23.274;2022-09-27T03:44:08;94421.19;;;15.09
42119;BMP280;27783;42.782;23.274;2022-09-27T03:46:34;94433.25;;;15.01
42119;BMP280;27783;42.782;23.274;2022-09-27T03:48:59;94426.94;;;14.86
42119;BMP280;27783;42.782;23.274;2022-09-27T03:51:25;94429.50;;;14.90
42119;BMP280;27783;42.782;23.274;2022-09-27T03:53:51;94431.03;;;15.00
42119;BMP280;27783;42.782;23.274;2022-09-27T03:56:16;94439.88;;;15.05
42119;BMP280;27783;42.782;23.274;2022-09-27T03:58:42;94445.81;;;15.09
42119;BMP280;27783;42.782;23.274;2022-09-27T04:01:08;94439.69;;;15.21
42119;BMP280;27783;42.782;23.274;2022-09-27T04:03:33;94442.53;;;15.05
42119;BMP280;27783;42.782;23.274;2022-09-27T04:06:01;94455.44;;;15.16
42119;BMP280;27783;42.782;23.274;2022-09-27T04:08:26;94433.13;;;15.04
42119;BMP280;27783;42.782;23.274;2022-09-27T04:10:51;94440.84;;;14.90
42119;BMP280;27783;42.782;23.274;2022-09-27T04:13:17;94449.31;;;14.98
42119;BMP280;27783;42.782;23.274;2022-09-27T04:15:43;94445.97;;;15.15
42119;BMP280;27783;42.782;23.274;2022-09-27T04:18:09;94445.06;;;15.09
42119;BMP280;27783;42.782;23.274;2022-09-27T04:20:35;94437.44;;;14.90
42119;BMP280;27783;42.782;23.274;2022-09-27T04:23:00;94432.25;;;14.86
42119;BMP280;27783;42.782;23.274;2022-09-27T04:25:26;94421.03;;;15.03
42119;BMP280;27783;42.782;23.274;2022-09-27T04:27:51;94428.91;;;15.16
42119;BMP280;27783;42.782;23.274;2022-09-27T04:30:20;94436.19;;;15.03
42119;BMP280;27783;42.782;23.274;2022-09-27T04:32:46;94453.59;;;15.04
42119;BMP280;27783;42.782;23.274;2022-09-27T04:35:12;94444.25;;;14.91
42119;BMP280;27783;42.782;23.274;2022-09-27T04:38:16;94447.94;;;14.93
42119;BMP280;27783;42.782;23.274;2022-09-27T04:40:44;94428.41;;;14.87
42119;BMP280;27783;42.782;23.274;2022-09-27T04:43:09;94439.72;;;15.00
42119;BMP280;27783;42.782;23.274;2022-09-27T04:45:35;94427.97;;;15.10
42119;BMP280;27783;42.782;23.274;2022-09-27T04:48:01;94436.69;;;15.10
42119;BMP280;27783;42.782;23.274;2022-09-27T04:50:26;94450.56;;;15.14
42119;BMP280;27783;42.782;23.274;2022-09-27T04:52:52;94450.63;;;15.02
42119;BMP280;27783;42.782;23.274;2022-09-27T04:55:19;94450.63;;;15.02
42119;BMP280;27783;42.782;23.274;2022-09-27T04:57:45;94449.75;;;15.05
42119;BMP280;27783;42.782;23.274;2022-09-27T05:00:11;94448.84;;;14.99
42119;BMP280;27783;42.782;23.274;2022-09-27T05:02:37;94448.72;;;15.02
42119;BMP280;27783;42.782;23.274;2022-09-27T05:05:03;94445.16;;;15.26
42119;BMP280;27783;42.782;23.274;2022-09-27T05:07:32;94428.78;;;15.28
42119;BMP280;27783;42.782;23.274;2022-09-27T05:09:58;94429.41;;;15.32
42119;BMP280;27783;42.782;23.274;2022-09-27T05:12:24;94433.72;;;15.38
42119;BMP280;27783;42.782;23.274;2022-09-27T05:14:52;94418.03;;;15.31
42119;BMP280;27783;42.782;23.274;2022-09-27T05:17:17;94414.75;;;15.18
42119;BMP280;27783;42.782;23.274;2022-09-27T05:19:44;94420.13;;;15.27
42119;BMP280;27783;42.782;23.274;2022-09-27T05:22:10;94417.13;;;15.25
42119;BMP280;27783;42.782;23.274;2022-09-27T05:24:35;94415.97;;;15.26
42119;BMP280;27783;42.782;23.274;2022-09-27T05:27:02;94406.84;;;15.27
42119;BMP280;27783;42.782;23.274;2022-09-27T05:29:28;94395.03;;;15.28
42119;BMP280;27783;42.782;23.274;2022-09-27T05:31:54;94393.88;;;15.38
42119;BMP280;27783;42.782;23.274;2022-09-27T05:34:19;94385.09;;;15.50
42119;BMP280;27783;42.782;23.274;2022-09-27T05:36:48;94384.91;;;15.44
42119;BMP280;27783;42.782;23.274;2022-09-27T05:39:14;94392.59;;;15.42
42119;BMP280;27783;42.782;23.274;2022-09-27T05:41:44;94387.56;;;15.44
42119;BMP280;27783;42.782;23.274;2022-09-27T05:44:10;94421.38;;;15.52
42119;BMP280;27783;42.782;23.274;2022-09-27T05:46:37;94406.34;;;15.50
42119;BMP280;27783;42.782;23.274;2022-09-27T05:49:03;94405.31;;;15.56
42119;BMP280;27783;42.782;23.274;2022-09-27T05:51:29;94406.19;;;15.53
42119;BMP280;27783;42.782;23.274;2022-09-27T05:53:55;94406.47;;;15.46
42119;BMP280;27783;42.782;23.274;2022-09-27T05:56:20;94421.25;;;15.56
42119;BMP280;27783;42.782;23.274;2022-09-27T05:58:45;94422.41;;;15.46
42119;BMP280;27783;42.782;23.274;2022-09-27T06:01:11;94423.00;;;15.50
42119;BMP280;27783;42.782;23.274;2022-09-27T06:03:36;94413.69;;;15.46
42119;BMP280;27783;42.782;23.274;2022-09-27T06:06:04;94414.72;;;15.48
42119;BMP280;27783;42.782;23.274;2022-09-27T06:08:34;94409.88;;;15.47
42119;BMP280;27783;42.782;23.274;2022-09-27T06:11:06;94411.47;;;15.44
42119;BMP280;27783;42.782;23.274;2022-09-27T06:13:32;94424.03;;;15.44
42119;BMP280;27783;42.782;23.274;2022-09-27T06:15:58;94426.09;;;15.49
42119;BMP280;27783;42.782;23.274;2022-09-27T06:18:24;94422.13;;;15.53
42119;BMP280;27783;42.782;23.274;2022-09-27T06:20:50;94410.59;;;15.47
42119;BMP280;27783;42.782;23.274;2022-09-27T06:23:18;94423.75;;;15.51
42119;BMP280;27783;42.782;23.274;2022-09-27T06:25:45;94417.84;;;15.47
42119;BMP280;27783;42.782;23.274;2022-09-27T06:28:14;94416.97;;;15.50
42119;BMP280;27783;42.782;23.274;2022-09-27T06:30:44;94414.38;;;15.37
42119;BMP280;27783;42.782;23.274;2022-09-27T06:33:18;94417.47;;;15.27
42119;BMP280;27783;42.782;23.274;2022-09-27T06:35:45;94413.63;;;15.28
42119;BMP280;27783;42.782;23.274;2022-09-27T06:38:13;94421.56;;;15.28
42119;BMP280;27783;42.782;23.274;2022-09-27T06:40:41;94414.97;;;15.33
42119;BMP280;27783;42.782;23.274;2022-09-27T06:43:11;94415.50;;;15.19
42119;BMP280;27783;42.782;23.274;2022-09-27T06:45:37;94424.75;;;15.15
42119;BMP280;27783;42.782;23.274;2022-09-27T06:48:05;94434.53;;;15.18
42119;BMP280;27783;42.782;23.274;2022-09-27T06:50:33;94417.78;;;15.08
42119;BMP280;27783;42.782;23.274;2022-09-27T06:52:58;94420.63;;;15.14
42119;BMP280;27783;42.782;23.274;2022-09-27T06:55:24;94410.31;;;15.16
42119;BMP280;27783;42.782;23.274;2022-09-27T06:57:53;94402.06;;;15.14
42119;BMP280;27783;42.782;23.274;2022-09-27T07:00:38;94426.63;;;15.35
42119;BMP280;27783;42.782;23.274;2022-09-27T07:03:03;94436.56;;;15.43
42119;BMP280;27783;42.782;23.274;2022-09-27T07:05:30;94435.34;;;15.44
42119;BMP280;27783;42.782;23.274;2022-09-27T07:07:56;94445.72;;;15.51
42119;BMP280;27783;42.782;23.274;2022-09-27T07:10:26;94458.16;;;15.63
42119;BMP280;27783;42.782;23.274;2022-09-27T07:12:53;94452.13;;;15.71
42119;BMP280;27783;42.782;23.274;2022-09-27T07:15:20;94463.56;;;15.89
42119;BMP280;27783;42.782;23.274;2022-09-27T07:17:58;94478.47;;;15.86
42119;BMP280;27783;42.782;23.274;2022-09-27T07:20:25;94475.78;;;15.78
42119;BMP280;27783;42.782;23.274;2022-09-27T07:22:51;94449.34;;;15.74
42119;BMP280;27783;42.782;23.274;2022-09-27T07:25:17;94451.84;;;15.78
42119;BMP280;27783;42.782;23.274;2022-09-27T07:27:43;94458.94;;;15.81
42119;BMP280;27783;42.782;23.274;2022-09-27T07:30:09;94448.88;;;15.97
42119;BMP280;27783;42.782;23.274;2022-09-27T07:32:36;94453.44;;;16.14
42119;BMP280;27783;42.782;23.274;2022-09-27T07:35:07;94447.84;;;16.12
42119;BMP280;27783;42.782;23.274;2022-09-27T07:37:34;94428.63;;;15.99
42119;BMP280;27783;42.782;23.274;2022-09-27T07:40:02;94422.44;;;16.02
42119;BMP280;27783;42.782;23.274;2022-09-27T07:42:29;94420.38;;;16.06
42119;BMP280;27783;42.782;23.274;2022-09-27T07:44:55;94418.31;;;16.10
42119;BMP280;27783;42.782;23.274;2022-09-27T07:47:21;94426.75;;;16.26
42119;BMP280;27783;42.782;23.274;2022-09-27T07:49:49;94437.53;;;16.40
42119;BMP280;27783;42.782;23.274;2022-09-27T07:52:16;94441.38;;;16.56
42119;BMP280;27783;42.782;23.274;2022-09-27T07:54:42;94439.91;;;16.38
42119;BMP280;27783;42.782;23.274;2022-09-27T07:57:07;94436.34;;;16.32
42119;BMP280;27783;42.782;23.274;2022-09-27T07:59:33;94452.03;;;16.39
42119;BMP280;27783;42.782;23.274;2022-09-27T08:01:58;94458.09;;;16.39
42119;BMP280;27783;42.782;23.274;2022-09-27T08:04:24;94461.31;;;16.43
42119;BMP280;27783;42.782;23.274;2022-09-27T08:06:49;94447.28;;;16.25
42119;BMP280;27783;42.782;23.274;2022-09-27T08:09:15;94456.13;;;16.31
42119;BMP280;27783;42.782;23.274;2022-09-27T08:11:40;94456.00;;;16.34
42119;BMP280;27783;42.782;23.274;2022-09-27T08:14:08;94456.28;;;16.19
42119;BMP280;27783;42.782;23.274;2022-09-27T08:16:35;94446.81;;;16.18
42119;BMP280;27783;42.782;23.274;2022-09-27T08:19:00;94436.94;;;16.27
42119;BMP280;27783;42.782;23.274;2022-09-27T08:21:26;94445.50;;;16.40
42119;BMP280;27783;42.782;23.274;2022-09-27T08:23:51;94436.34;;;16.41
42119;BMP280;27783;42.782;23.274;2022-09-27T08:26:18;94422.47;;;16.28
42119;BMP280;27783;42.782;23.274;2022-09-27T08:28:46;94415.09;;;16.32
42119;BMP280;27783;42.782;23.274;2022-09-27T08:31:11;94406.97;;;16.35
42119;BMP280;27783;42.782;23.274;2022-09-27T08:33:37;94410.03;;;16.43
42119;BMP280;27783;42.782;23.274;2022-09-27T08:36:03;94409.31;;;16.42
42119;BMP280;27783;42.782;23.274;2022-09-27T08:38:34;94397.03;;;16.53
42119;BMP280;27783;42.782;23.274;2022-09-27T08:41:08;94401.78;;;16.50
42119;BMP280;27783;42.782;23.274;2022-09-27T08:46:13;94407.22;;;16.46
42119;BMP280;27783;42.782;23.274;2022-09-27T08:48:40;94412.41;;;16.41
42119;BMP280;27783;42.782;23.274;2022-09-27T08:51:10;94399.25;;;16.46
42119;BMP280;27783;42.782;23.274;2022-09-27T08:54:02;94398.38;;;16.32
42119;BMP280;27783;42.782;23.274;2022-09-27T08:56:25;94404.31;;;16.35
42119;BMP280;27783;42.782;23.274;2022-09-27T08:59:13;94396.59;;;16.64
42119;BMP280;27783;42.782;23.274;2022-09-27T09:01:40;94401.47;;;16.65
42119;BMP280;27783;42.782;23.274;2022-09-27T09:04:08;94396.00;;;16.68
42119;BMP280;27783;42.782;23.274;2022-09-27T09:09:29;94415.03;;;16.76
42119;BMP280;27783;42.782;23.274;2022-09-27T09:25:48;94394.97;;;17.33
42119;BMP280;27783;42.782;23.274;2022-09-27T09:33:57;94401.72;;;17.11
42119;BMP280;27783;42.782;23.274;2022-09-27T09:36:29;94401.00;;;17.42
42119;BMP280;27783;42.782;23.274;2022-09-27T09:39:17;94393.69;;;17.60
42119;BMP280;27783;42.782;23.274;2022-09-27T09:44:30;94396.50;;;17.56
42119;BMP280;27783;42.782;23.274;2022-09-27T09:47:01;94387.38;;;17.71
42119;BMP280;27783;42.782;23.274;2022-09-27T09:49:38;94396.50;;;18.11
42119;BMP280;27783;42.782;23.274;2022-09-27T09:52:14;94393.13;;;18.10
42119;BMP280;27783;42.782;23.274;2022-09-27T09:54:45;94389.81;;;17.92
42119;BMP280;27783;42.782;23.274;2022-09-27T10:00:14;94387.66;;;17.82
42119;BMP280;27783;42.782;23.274;2022-09-27T10:02:46;94387.38;;;18.03
42119;BMP280;27783;42.782;23.274;2022-09-27T10:05:15;94381.97;;;18.35
42119;BMP280;27783;42.782;23.274;2022-09-27T10:07:41;94379.50;;;18.45
42119;BMP280;27783;42.782;23.274;2022-09-27T10:10:12;94380.13;;;18.40
42119;BMP280;27783;42.782;23.274;2022-09-27T10:12:38;94392.97;;;18.65
42119;BMP280;27783;42.782;23.274;2022-09-27T10:15:04;94371.63;;;18.28
42119;BMP280;27783;42.782;23.274;2022-09-27T10:17:40;94373.91;;;18.57
42119;BMP280;27783;42.782;23.274;2022-09-27T10:20:06;94366.75;;;18.63
42119;BMP280;27783;42.782;23.274;2022-09-27T10:22:37;94364.84;;;18.78
42119;BMP280;27783;42.782;23.274;2022-09-27T10:25:05;94351.16;;;18.99
42119;BMP280;27783;42.782;23.274;2022-09-27T10:27:45;94343.69;;;19.02
42119;BMP280;27783;42.782;23.274;2022-09-27T10:30:29;94351.72;;;19.02
42119;BMP280;27783;42.782;23.274;2022-09-27T10:33:02;94338.00;;;19.43
42119;BMP280;27783;42.782;23.274;2022-09-27T10:38:23;94335.41;;;19.48
42119;BMP280;27783;42.782;23.274;2022-09-27T10:40:50;94324.81;;;19.87
42119;BMP280;27783;42.782;23.274;2022-09-27T10:46:10;94326.78;;;19.92
42119;BMP280;27783;42.782;23.274;2022-09-27T10:48:38;94335.31;;;20.10
42119;BMP280;27783;42.782;23.274;2022-09-27T10:51:05;94329.72;;;20.52
42119;BMP280;27783;42.782;23.274;2022-09-27T10:53:34;94318.31;;;20.32
42119;BMP280;27783;42.782;23.274;2022-09-27T10:56:01;94324.13;;;20.75
42119;BMP280;27783;42.782;23.274;2022-09-27T10:58:30;94300.91;;;20.91
42119;BMP280;27783;42.782;23.274;2022-09-27T11:01:08;94306.84;;;21.31
42119;BMP280;27783;42.782;23.274;2022-09-27T11:03:38;94310.47;;;21.99
42119;BMP280;27783;42.782;23.274;2022-09-27T11:08:48;94284.47;;;22.31
42119;BMP280;27783;42.782;23.274;2022-09-27T11:11:18;94286.19;;;22.39
42119;BMP280;27783;42.782;23.274;2022-09-27T11:19:06;94291.00;;;22.20
42119;BMP280;27783;42.782;23.274;2022-09-27T11:35:43;94256.00;;;23.46
42119;BMP280;27783;42.782;23.274;2022-09-27T11:46:27;94231.59;;;23.33
42119;BMP280;27783;42.782;23.274;2022-09-27T11:51:36;94218.94;;;23.94
42119;BMP280;27783;42.782;23.274;2022-09-27T12:00:18;94195.69;;;24.41
42119;BMP280;27783;42.782;23.274;2022-09-27T12:05:52;94175.75;;;24.89
42119;BMP280;27783;42.782;23.274;2022-09-27T12:11:25;94192.91;;;23.52
42119;BMP280;27783;42.782;23.274;2022-09-27T12:14:01;94181.88;;;23.66
42119;BMP280;27783;42.782;23.274;2022-09-27T12:16:29;94175.09;;;23.38
42119;BMP280;27783;42.782;23.274;2022-09-27T12:18:56;94180.53;;;22.53
42119;BMP280;27783;42.782;23.274;2022-09-27T12:21:24;94177.59;;;23.21
42119;BMP280;27783;42.782;23.274;2022-09-27T12:23:55;94150.88;;;23.49
42119;BMP280;27783;42.782;23.274;2022-09-27T12:26:29;94128.75;;;23.01
42119;BMP280;27783;42.782;23.274;2022-09-27T12:29:00;94145.13;;;22.97
42119;BMP280;27783;42.782;23.274;2022-09-27T12:31:33;94153.84;;;23.40
42119;BMP280;27783;42.782;23.274;2022-09-27T12:34:16;94133.41;;;22.79
42119;BMP280;27783;42.782;23.274;2022-09-27T12:36:51;94109.75;;;22.67
42119;BMP280;27783;42.782;23.274;2022-09-27T12:41:56;94096.31;;;22.61
42119;BMP280;27783;42.782;23.274;2022-09-27T12:44:27;94091.41;;;22.65
42119;BMP280;27783;42.782;23.274;2022-09-27T12:52:13;94112.38;;;22.93
42119;BMP280;27783;42.782;23.274;2022-09-27T13:00:21;94128.25;;;23.02
42119;BMP280;27783;42.782;23.274;2022-09-27T13:03:05;94108.56;;;23.50
42119;BMP280;27783;42.782;23.274;2022-09-27T13:08:49;94146.81;;;22.20
42119;BMP280;27783;42.782;23.274;2022-09-27T13:14:22;94130.19;;;21.95
42119;BMP280;27783;42.782;23.274;2022-09-27T13:16:49;94118.03;;;22.42
42119;BMP280;27783;42.782;23.274;2022-09-27T13:19:38;94128.03;;;22.47
42119;BMP280;27783;42.782;23.274;2022-09-27T13:22:07;94114.13;;;22.48
42119;BMP280;27783;42.782;23.274;2022-09-27T13:32:38;94107.78;;;22.30
42119;BMP280;27783;42.782;23.274;2022-09-27T13:37:51;94110.31;;;21.60
42119;BMP280;27783;42.782;23.274;2022-09-27T13:40:22;94112.63;;;21.94
42119;BMP280;27783;42.782;23.274;2022-09-27T13:43:16;94104.84;;;21.28
42119;BMP280;27783;42.782;23.274;2022-09-27T13:45:55;94121.06;;;21.09
42119;BMP280;27783;42.782;23.274;2022-09-27T13:48:37;94127.75;;;21.29
42119;BMP280;27783;42.782;23.274;2022-09-27T13:51:41;94134.72;;;21.73
42119;BMP280;27783;42.782;23.274;2022-09-27T13:56:59;94139.75;;;21.44
42119;BMP280;27783;42.782;23.274;2022-09-27T13:59:46;94147.38;;;21.67
42119;BMP280;27783;42.782;23.274;2022-09-27T14:02:26;94145.91;;;21.61
42119;BMP280;27783;42.782;23.274;2022-09-27T14:04:56;94134.75;;;21.16
42119;BMP280;27783;42.782;23.274;2022-09-27T14:07:30;94143.78;;;20.83
42119;BMP280;27783;42.782;23.274;2022-09-27T14:10:00;94130.47;;;20.94
42119;BMP280;27783;42.782;23.274;2022-09-27T14:12:38;94133.34;;;21.31
42119;BMP280;27783;42.782;23.274;2022-09-27T14:15:06;94128.16;;;21.74
42119;BMP280;27783;42.782;23.274;2022-09-27T14:17:34;94123.06;;;21.76
42119;BMP280;27783;42.782;23.274;2022-09-27T14:20:01;94116.13;;;21.53
42119;BMP280;27783;42.782;23.274;2022-09-27T14:22:29;94112.47;;;21.00
42119;BMP280;27783;42.782;23.274;2022-09-27T14:24:56;94110.25;;;20.93
42119;BMP280;27783;42.782;23.274;2022-09-27T14:27:28;94112.41;;;20.84
42119;BMP280;27783;42.782;23.274;2022-09-27T14:30:21;94104.16;;;20.92
42119;BMP280;27783;42.782;23.274;2022-09-27T14:32:50;94093.78;;;21.05
42119;BMP280;27783;42.782;23.274;2022-09-27T14:35:30;94094.91;;;20.93
42119;BMP280;27783;42.782;23.274;2022-09-27T14:38:18;94089.59;;;21.04
42119;BMP280;27783;42.782;23.274;2022-09-27T14:41:00;94100.94;;;20.83
42119;BMP280;27783;42.782;23.274;2022-09-27T14:43:29;94091.25;;;20.25
42119;BMP280;27783;42.782;23.274;2022-09-27T14:46:03;94093.63;;;20.43
42119;BMP280;27783;42.782;23.274;2022-09-27T14:48:36;94115.75;;;20.43
42119;BMP280;27783;42.782;23.274;2022-09-27T14:51:18;94123.88;;;20.54
42119;BMP280;27783;42.782;23.274;2022-09-27T14:53:49;94135.06;;;20.53
42119;BMP280;27783;42.782;23.274;2022-09-27T14:56:25;94162.06;;;20.24
42119;BMP280;27783;42.782;23.274;2022-09-27T14:59:00;94162.56;;;19.79
42119;BMP280;27783;42.782;23.274;2022-09-27T15:01:35;94154.31;;;19.57
42119;BMP280;27783;42.782;23.274;2022-09-27T15:04:07;94150.56;;;19.50
42119;BMP280;27783;42.782;23.274;2022-09-27T15:06:35;94156.25;;;19.57
42119;BMP280;27783;42.782;23.274;2022-09-27T15:09:03;94150.00;;;19.26
42119;BMP280;27783;42.782;23.274;2022-09-27T15:11:29;94137.47;;;19.52
42119;BMP280;27783;42.782;23.274;2022-09-27T15:13:59;94127.59;;;19.19
42119;BMP280;27783;42.782;23.274;2022-09-27T15:16:26;94163.75;;;19.00
42119;BMP280;27783;42.782;23.274;2022-09-27T15:19:13;94155.41;;;18.93
42119;BMP280;27783;42.782;23.274;2022-09-27T15:21:41;94157.66;;;19.00
42119;BMP280;27783;42.782;23.274;2022-09-27T15:24:39;94169.88;;;18.86
42119;BMP280;27783;42.782;23.274;2022-09-27T15:27:20;94177.34;;;18.83
42119;BMP280;27783;42.782;23.274;2022-09-27T15:29:55;94188.06;;;18.69
42119;BMP280;27783;42.782;23.274;2022-09-27T15:32:25;94217.41;;;18.12
42119;BMP280;27783;42.782;23.274;2022-09-27T15:34:55;94220.22;;;17.81
42119;BMP280;27783;42.782;23.274;2022-09-27T15:37:50;94208.19;;;17.62
42119;BMP280;27783;42.782;23.274;2022-09-27T15:43:01;94239.22;;;17.28
42119;BMP280;27783;42.782;23.274;2022-09-27T15:45:33;94244.22;;;17.03
42119;BMP280;27783;42.782;23.274;2022-09-27T15:48:25;94234.09;;;16.84
42119;BMP280;27783;42.782;23.274;2022-09-27T15:50:52;94226.97;;;16.59
42119;BMP280;27783;42.782;23.274;2022-09-27T15:55:59;94219.66;;;16.68
42119;BMP280;27783;42.782;23.274;2022-09-27T15:58:25;94225.41;;;16.75
42119;BMP280;27783;42.782;23.274;2022-09-27T16:00:54;94239.09;;;16.83
42119;BMP280;27783;42.782;23.274;2022-09-27T16:03:20;94248.91;;;16.77
42119;BMP280;27783;42.782;23.274;2022-09-27T16:05:46;94247.91;;;16.66
42119;BMP280;27783;42.782;23.274;2022-09-27T16:08:11;94254.38;;;16.73
42119;BMP280;27783;42.782;23.274;2022-09-27T16:10:40;94264.84;;;16.77
42119;BMP280;27783;42.782;23.274;2022-09-27T16:13:07;94273.78;;;16.65
42119;BMP280;27783;42.782;23.274;2022-09-27T16:15:34;94259.16;;;16.61
42119;BMP280;27783;42.782;23.274;2022-09-27T16:18:01;94259.31;;;16.57
42119;BMP280;27783;42.782;23.274;2022-09-27T16:20:27;94258.75;;;16.45
42119;BMP280;27783;42.782;23.274;2022-09-27T16:22:54;94265.72;;;16.34
42119;BMP280;27783;42.782;23.274;2022-09-27T16:25:23;94270.16;;;16.28
42119;BMP280;27783;42.782;23.274;2022-09-27T16:27:49;94298.41;;;16.25
42119;BMP280;27783;42.782;23.274;2022-09-27T16:30:15;94330.59;;;16.36
42119;BMP280;27783;42.782;23.274;2022-09-27T16:32:43;94332.19;;;16.42
42119;BMP280;27783;42.782;23.274;2022-09-27T16:35:10;94309.63;;;15.94
42119;BMP280;27783;42.782;23.274;2022-09-27T16:37:36;94267.38;;;15.79
42119;BMP280;27783;42.782;23.274;2022-09-27T16:40:05;94235.50;;;15.52
42119;BMP280;27783;42.782;23.274;2022-09-27T16:42:30;94284.81;;;15.80
42119;BMP280;27783;42.782;23.274;2022-09-27T16:44:57;94280.69;;;15.96
42119;BMP280;27783;42.782;23.274;2022-09-27T16:47:22;94304.63;;;15.96
42119;BMP280;27783;42.782;23.274;2022-09-27T16:49:48;94304.13;;;15.71
42119;BMP280;27783;42.782;23.274;2022-09-27T16:52:40;94298.06;;;15.62